Time;durP1;ratioP1;P1;durP2;ratioP2;P2;SDS_P1;SDS_P2;PMS_P1;PMS_P2;Temp;Humidity;BMP_temperature;BMP_pressure;BME280_temperature;BME280_humidity;BME280_pressure;Samples;Min_cycle;Max_cycle;Signal;HPM_P1;HPM_P2
2023/03/07 00:01:34;;;;;;;3.40;1.25;;;;;;;2.40;100.00;99536.78;5039749;28;20192;-76
2023/03/07 00:04:00;;;;;;;3.75;1.45;;;;;;;2.40;100.00;99542.00;5059124;28;20538;-75
2023/03/07 00:06:26;;;;;;;4.00;1.30;;;;;;;2.39;100.00;99547.28;5051648;28;20081;-75
2023/03/07 00:08:53;;;;;;;4.05;1.35;;;;;;;2.39;100.00;99547.28;5023945;28;20036;-75
2023/03/07 00:11:19;;;;;;;3.55;1.20;;;;;;;2.37;100.00;99543.84;5022509;28;20045;-75
2023/03/07 00:13:44;;;;;;;5.05;1.67;;;;;;;2.34;100.00;99543.97;5057177;28;20029;-75
2023/03/07 00:16:15;;;;;;;4.40;1.20;;;;;;;2.30;100.00;99543.22;5040272;28;20037;-75
2023/03/07 00:18:42;;;;;;;4.25;1.00;;;;;;;2.25;100.00;99545.97;5040450;28;20052;-75
2023/03/07 00:21:10;;;;;;;5.13;1.20;;;;;;;2.19;100.00;99543.56;5036123;28;20032;-75
2023/03/07 00:23:38;;;;;;;5.00;1.38;;;;;;;2.18;100.00;99539.22;5053026;28;20515;-75
2023/03/07 00:26:17;;;;;;;6.97;1.88;;;;;;;2.14;100.00;99542.84;5057442;28;20588;-75
2023/03/07 00:28:45;;;;;;;8.80;1.77;;;;;;;2.11;100.00;99538.56;5056799;28;21887;-75
2023/03/07 00:31:11;;;;;;;1.95;1.05;;;;;;;2.08;100.00;99541.28;5043088;28;20036;-75
2023/03/07 00:33:37;;;;;;;4.47;1.00;;;;;;;2.07;100.00;99541.31;5058047;28;20063;-75
2023/03/07 00:36:10;;;;;;;3.47;1.00;;;;;;;2.05;100.00;99535.31;5038924;28;21786;-75
2023/03/07 00:38:36;;;;;;;7.40;1.17;;;;;;;2.04;100.00;99531.81;5040300;28;20039;-76
2023/03/07 00:41:10;;;;;;;2.63;0.80;;;;;;;2.03;100.00;99524.91;5038278;28;20458;-75
2023/03/07 00:43:36;;;;;;;7.90;1.20;;;;;;;2.02;100.00;99528.41;5056879;28;20490;-75
2023/03/07 00:46:01;;;;;;;3.67;1.20;;;;;;;2.02;100.00;99524.03;5023501;28;20092;-75
2023/03/07 00:48:28;;;;;;;3.40;1.15;;;;;;;2.02;100.00;99531.03;5043308;28;20036;-75
2023/03/07 00:50:54;;;;;;;3.50;1.10;;;;;;;2.01;100.00;99524.94;5058008;28;20506;-75
2023/03/07 00:53:20;;;;;;;6.93;1.38;;;;;;;2.00;100.00;99531.06;5035255;28;20032;-75
2023/03/07 00:55:57;;;;;;;6.60;1.02;;;;;;;2.01;100.00;99527.56;5039283;28;20028;-75
2023/03/07 00:58:23;;;;;;;3.60;0.93;;;;;;;2.00;100.00;99523.25;5040258;28;20747;-73
2023/03/07 01:00:48;;;;;;;2.92;0.77;;;;;;;2.00;100.00;99519.75;5037097;28;20400;-75
2023/03/07 01:03:14;;;;;;;4.45;0.93;;;;;;;1.98;100.00;99517.22;5057436;28;20055;-75
2023/03/07 01:05:40;;;;;;;11.23;1.48;;;;;;;1.98;100.00;99522.44;5027928;28;20039;-75
2023/03/07 01:08:06;;;;;;;12.85;1.27;;;;;;;1.97;100.00;99522.47;5041453;28;21341;-76
2023/03/07 01:10:32;;;;;;;2.92;0.95;;;;;;;1.97;100.00;99522.47;5024405;28;20056;-75
2023/03/07 01:13:01;;;;;;;6.78;1.05;;;;;;;1.95;100.00;99514.69;5052746;28;20039;-75
2023/03/07 01:15:26;;;;;;;4.00;1.05;;;;;;;1.93;100.00;99519.09;5055038;28;20518;-75
2023/03/07 01:17:52;;;;;;;2.58;1.13;;;;;;;1.93;100.00;99518.25;5025585;28;20040;-75
2023/03/07 01:20:18;;;;;;;4.65;1.00;;;;;;;1.90;100.00;99521.78;5058245;28;20048;-76
2023/03/07 01:22:44;;;;;;;2.30;0.75;;;;;;;1.87;100.00;99509.69;5058802;28;20399;-75
2023/03/07 01:25:10;;;;;;;6.03;1.52;;;;;;;1.85;100.00;99515.88;5036113;28;20028;-75
2023/03/07 01:27:36;;;;;;;4.07;1.17;;;;;;;1.84;100.00;99516.75;5027851;28;20040;-75
2023/03/07 01:30:03;;;;;;;1.40;0.82;;;;;;;1.81;100.00;99507.28;5044851;28;20087;-76
2023/03/07 01:32:28;;;;;;;3.92;0.95;;;;;;;1.79;100.00;99503.03;5030159;28;20036;-75
2023/03/07 01:34:54;;;;;;;4.97;0.80;;;;;;;1.76;100.00;99499.59;5030471;28;20625;-75
2023/03/07 01:37:19;;;;;;;1.90;0.65;;;;;;;1.76;100.00;99496.13;5025097;28;20036;-75
2023/03/07 01:39:45;;;;;;;4.22;1.05;;;;;;;1.74;100.00;99493.56;5025927;28;20508;-75
2023/03/07 01:42:10;;;;;;;5.93;1.10;;;;;;;1.72;100.00;99490.16;5053953;28;20059;-75
2023/03/07 01:45:04;;;;;;;5.00;1.05;;;;;;;1.72;100.00;99489.28;5055797;28;20066;-75
2023/03/07 01:47:38;;;;;;;2.65;0.75;;;;;;;1.71;100.00;99488.44;5033002;28;20497;-75
2023/03/07 01:50:07;;;;;;;8.88;1.40;;;;;;;1.71;100.00;99484.97;5042725;28;20559;-75
2023/03/07 01:52:42;;;;;;;5.35;1.13;;;;;;;1.74;100.00;99484.91;5035447;28;20040;-75
2023/03/07 01:55:15;;;;;;;7.65;1.10;;;;;;;1.73;100.00;99484.03;5035518;28;20399;-76
2023/03/07 01:57:42;;;;;;;5.30;0.93;;;;;;;1.72;100.00;99479.72;5047384;28;20157;-75
2023/03/07 02:00:11;;;;;;;3.97;1.00;;;;;;;1.73;100.00;99475.34;5055151;28;20182;-75
2023/03/07 02:02:38;;;;;;;4.75;1.13;;;;;;;1.73;100.00;99473.59;5025651;28;20275;-75
2023/03/07 02:05:11;;;;;;;4.70;0.90;;;;;;;1.72;100.00;99479.72;5016333;28;20032;-75
2023/03/07 02:07:45;;;;;;;8.05;1.05;;;;;;;1.72;100.00;99464.06;5056146;28;20063;-75
2023/03/07 02:10:12;;;;;;;1.55;0.70;;;;;;;1.71;100.00;99466.72;5035023;28;20902;-76
2023/03/07 02:12:39;;;;;;;1.95;0.75;;;;;;;1.68;100.00;99472.88;5050735;28;20533;-75
2023/03/07 02:15:06;;;;;;;3.63;1.00;;;;;;;1.65;100.00;99472.13;5051334;28;21690;-75
2023/03/07 02:17:32;;;;;;;2.60;1.08;;;;;;;1.59;100.00;99467.94;5035331;28;20509;-75
2023/03/07 02:20:31;;;;;;;3.53;0.80;;;;;;;1.57;100.00;99467.16;5029501;28;20419;-75
2023/03/07 02:22:57;;;;;;;1.98;0.60;;;;;;;1.52;100.00;99469.03;4978075;28;20144;-75
2023/03/07 02:25:35;;;;;;;3.22;0.70;;;;;;;1.51;100.00;99460.34;5017825;28;20169;-75
2023/03/07 02:28:03;;;;;;;3.30;0.90;;;;;;;1.51;100.00;99473.38;5054317;28;20051;-75
2023/03/07 02:30:29;;;;;;;4.80;0.75;;;;;;;1.51;100.00;99469.94;5034866;28;20101;-75
2023/03/07 02:32:54;;;;;;;0.88;0.80;;;;;;;1.51;100.00;99467.31;5035876;28;20075;-75
2023/03/07 02:35:23;;;;;;;2.72;1.40;;;;;;;1.50;100.00;99461.25;5033816;28;20071;-75
2023/03/07 02:37:51;;;;;;;1.27;0.73;;;;;;;1.49;100.00;99457.78;5020500;28;20039;-75
2023/03/07 02:40:18;;;;;;;2.80;0.73;;;;;;;1.48;100.00;99466.50;5037339;28;20032;-75
2023/03/07 02:42:45;;;;;;;2.45;0.80;;;;;;;1.45;100.00;99461.38;5007776;28;20025;-75
2023/03/07 02:45:13;;;;;;;2.42;0.70;;;;;;;1.43;100.00;99462.34;5034324;28;20055;-75
2023/03/07 02:47:41;;;;;;;4.65;0.93;;;;;;;1.40;100.00;99452.84;5032744;28;20686;-75
2023/03/07 02:50:07;;;;;;;5.10;1.10;;;;;;;1.38;100.00;99459.00;5032707;28;20086;-75
2023/03/07 02:52:40;;;;;;;4.38;1.05;;;;;;;1.35;100.00;99450.38;5054394;28;20036;-75
2023/03/07 02:55:07;;;;;;;2.38;0.75;;;;;;;1.33;100.00;99456.53;5031499;28;20039;-75
2023/03/07 02:57:33;;;;;;;5.10;0.90;;;;;;;1.30;100.00;99447.03;5055244;28;20566;-75
2023/03/07 02:59:58;;;;;;;0.50;0.50;;;;;;;1.30;100.00;99447.03;5033682;28;20127;-75
2023/03/07 03:02:24;;;;;;;2.75;0.90;;;;;;;1.29;100.00;99445.34;5054998;28;20108;-75
2023/03/07 03:04:50;;;;;;;0.77;0.60;;;;;;;1.30;100.00;99457.47;5050331;28;21624;-76
2023/03/07 03:07:16;;;;;;;2.25;0.90;;;;;;;1.28;100.00;99459.28;5037140;28;20056;-75
2023/03/07 03:09:41;;;;;;;2.92;0.70;;;;;;;1.25;100.00;99453.31;5054815;28;20036;-75
2023/03/07 03:12:07;;;;;;;0.52;0.52;;;;;;;1.22;100.00;99454.25;5042312;28;20157;-76
2023/03/07 03:14:32;;;;;;;1.63;0.60;;;;;;;1.20;100.00;99454.28;5035199;28;20093;-75
2023/03/07 03:16:58;;;;;;;1.13;0.68;;;;;;;1.19;100.00;99454.31;5059738;28;20080;-75
2023/03/07 03:19:23;;;;;;;1.45;0.70;;;;;;;1.17;100.00;99443.09;5058055;28;20443;-75
2023/03/07 03:21:49;;;;;;;4.80;1.02;;;;;;;1.17;100.00;99458.72;5058667;28;20098;-75
2023/03/07 03:24:14;;;;;;;3.08;1.00;;;;;;;1.16;100.00;99457.88;5026549;28;20293;-75
2023/03/07 03:26:40;;;;;;;1.52;0.95;;;;;;;1.15;100.00;99453.53;5048292;28;20048;-75
2023/03/07 03:29:06;;;;;;;10.27;0.90;;;;;;;1.16;100.00;99457.03;5057364;28;20467;-75
2023/03/07 03:31:32;;;;;;;3.72;0.98;;;;;;;1.15;100.00;99453.53;5038851;28;20048;-75
2023/03/07 03:33:58;;;;;;;2.22;0.90;;;;;;;1.16;100.00;99457.03;5056275;28;20886;-75
2023/03/07 03:36:24;;;;;;;0.98;0.70;;;;;;;1.17;100.00;99446.56;5056206;28;20032;-75
2023/03/07 03:38:55;;;;;;;2.88;0.95;;;;;;;1.20;100.00;99451.66;5058706;28;20037;-75
2023/03/07 03:41:20;;;;;;;3.95;0.90;;;;;;;1.26;100.00;99439.34;5023799;28;20525;-75
2023/03/07 03:43:46;;;;;;;4.00;0.90;;;;;;;1.28;100.00;99432.34;5028873;28;20052;-75
2023/03/07 03:46:12;;;;;;;4.18;0.80;;;;;;;1.31;100.00;99434.88;5036801;28;20377;-75
2023/03/07 03:48:39;;;;;;;2.97;0.88;;;;;;;1.33;100.00;99444.34;5049794;28;20039;-75
2023/03/07 03:51:13;;;;;;;2.72;0.80;;;;;;;1.33;100.00;99433.94;5057998;28;20064;-76
2023/03/07 03:53:41;;;;;;;1.60;0.93;;;;;;;1.34;100.00;99434.75;5058106;28;20067;-76
2023/03/07 03:56:19;;;;;;;1.67;0.88;;;;;;;1.33;100.00;99441.75;5052635;28;20052;-76
2023/03/07 03:58:50;;;;;;;4.93;1.13;;;;;;;1.32;100.00;99444.41;5025216;28;20044;-76
2023/03/07 04:01:17;;;;;;;2.85;0.80;;;;;;;1.29;100.00;99447.94;5041198;28;20110;-75
2023/03/07 04:03:44;;;;;;;3.70;0.98;;;;;;;1.29;100.00;99447.06;5040013;28;20119;-75
2023/03/07 04:06:13;;;;;;;3.55;0.80;;;;;;;1.23;100.00;99445.50;5040262;28;20044;-75
2023/03/07 04:08:39;;;;;;;2.35;1.00;;;;;;;1.23;100.00;99453.34;5058331;28;20385;-76
2023/03/07 04:11:04;;;;;;;4.97;1.00;;;;;;;1.20;100.00;99449.06;5026405;28;20024;-75
2023/03/07 04:13:31;;;;;;;3.38;0.93;;;;;;;1.22;100.00;99457.69;5056150;28;20706;-75
2023/03/07 04:15:57;;;;;;;4.93;0.98;;;;;;;1.24;100.00;99462.88;5026592;28;20040;-76
2023/03/07 04:18:23;;;;;;;3.17;0.80;;;;;;;1.25;100.00;99458.50;5059287;28;20032;-75
2023/03/07 04:20:49;;;;;;;2.05;0.88;;;;;;;1.24;100.00;99462.88;5020466;28;20062;-75
2023/03/07 04:23:16;;;;;;;3.15;1.10;;;;;;;1.26;100.00;99463.69;5027079;28;20028;-75
2023/03/07 04:25:48;;;;;;;4.82;1.10;;;;;;;1.28;100.00;99447.97;5060161;28;20115;-75
2023/03/07 04:28:17;;;;;;;4.53;1.05;;;;;;;1.28;100.00;99445.38;5062296;28;20072;-75
2023/03/07 04:30:43;;;;;;;3.58;1.38;;;;;;;1.31;100.00;99448.75;5040961;28;20031;-76
2023/03/07 04:33:09;;;;;;;4.22;0.98;;;;;;;1.34;100.00;99442.59;5024116;28;20044;-75
2023/03/07 04:35:34;;;;;;;5.50;1.20;;;;;;;1.34;100.00;99445.19;5041730;28;20763;-75
2023/03/07 04:38:00;;;;;;;3.92;0.75;;;;;;;1.35;100.00;99439.06;5056431;28;20051;-75
2023/03/07 04:40:25;;;;;;;4.07;1.10;;;;;;;1.32;100.00;99440.00;5042050;28;20042;-76
2023/03/07 04:42:51;;;;;;;4.07;1.10;;;;;;;1.31;100.00;99434.88;5054149;28;20747;-75
2023/03/07 04:45:16;;;;;;;5.05;1.02;;;;;;;1.31;100.00;99438.31;5045237;28;20536;-75
2023/03/07 04:47:42;;;;;;;5.25;0.80;;;;;;;1.32;100.00;99436.56;5044326;28;20036;-75
2023/03/07 04:50:08;;;;;;;3.05;1.20;;;;;;;1.34;100.00;99438.25;5025954;28;20028;-76
2023/03/07 04:52:34;;;;;;;2.83;1.20;;;;;;;1.35;100.00;99437.34;5054837;28;20503;-76
2023/03/07 04:54:59;;;;;;;5.43;0.93;;;;;;;1.38;100.00;99438.13;5057235;28;20035;-75
2023/03/07 04:57:25;;;;;;;4.78;1.10;;;;;;;1.38;100.00;99441.59;5056538;28;20134;-76
2023/03/07 04:59:50;;;;;;;1.45;0.90;;;;;;;1.38;100.00;99446.81;5039925;28;20035;-76
2023/03/07 05:02:16;;;;;;;3.97;0.80;;;;;;;1.38;100.00;99435.53;5051756;28;20118;-75
2023/03/07 05:04:41;;;;;;;4.97;1.30;;;;;;;1.39;100.00;99439.84;5037210;28;20052;-76
2023/03/07 05:07:07;;;;;;;5.60;1.23;;;;;;;1.39;100.00;99434.63;5054659;28;20040;-77
2023/03/07 05:09:33;;;;;;;4.18;1.27;;;;;;;1.37;100.00;99432.09;5057043;28;20028;-75
2023/03/07 05:11:58;;;;;;;4.57;1.17;;;;;;;1.37;100.00;99437.28;5034173;28;20435;-76
2023/03/07 05:14:24;;;;;;;5.07;1.20;;;;;;;1.37;100.00;99432.09;5033876;28;20043;-75
2023/03/07 05:16:50;;;;;;;3.67;1.10;;;;;;;1.36;100.00;99435.56;5035815;28;20177;-76
2023/03/07 05:19:16;;;;;;;5.38;1.00;;;;;;;1.35;100.00;99429.50;5056427;28;20256;-75
2023/03/07 05:21:42;;;;;;;5.07;1.00;;;;;;;1.36;100.00;99432.94;5054936;28;20843;-76
2023/03/07 05:24:09;;;;;;;1.63;0.77;;;;;;;1.35;100.00;99433.84;5061061;28;20200;-76
2023/03/07 05:26:34;;;;;;;6.05;1.00;;;;;;;1.37;100.00;99439.91;5061509;28;20047;-76
2023/03/07 05:29:00;;;;;;;1.17;0.70;;;;;;;1.36;100.00;99435.56;5040261;28;20326;-76
2023/03/07 05:31:25;;;;;;;4.85;1.02;;;;;;;1.35;100.00;99433.84;5053994;28;20031;-76
2023/03/07 05:33:51;;;;;;;1.17;0.85;;;;;;;1.35;100.00;99431.25;5059113;28;20391;-76
2023/03/07 05:36:17;;;;;;;2.35;0.82;;;;;;;1.34;100.00;99432.16;5059544;28;20035;-76
2023/03/07 05:38:43;;;;;;;4.30;1.05;;;;;;;1.35;100.00;99429.50;5059376;28;20048;-75
2023/03/07 05:41:08;;;;;;;1.90;0.90;;;;;;;1.37;100.00;99445.13;5039341;28;20036;-76
2023/03/07 05:43:34;;;;;;;2.53;0.90;;;;;;;1.35;100.00;99436.47;5042032;28;20047;-76
2023/03/07 05:46:10;;;;;;;2.42;1.10;;;;;;;1.38;100.00;99448.56;5042840;28;20116;-77
2023/03/07 05:48:35;;;;;;;5.93;0.90;;;;;;;1.40;100.00;99452.84;5056299;28;20046;-76
2023/03/07 05:51:01;;;;;;;3.53;1.25;;;;;;;1.38;100.00;99444.22;5047990;28;20029;-76
2023/03/07 05:53:26;;;;;;;1.60;0.82;;;;;;;1.35;100.00;99454.72;5054237;28;20587;-76
2023/03/07 05:55:52;;;;;;;2.88;0.70;;;;;;;1.33;100.00;99440.88;5031034;28;20122;-76
2023/03/07 05:58:17;;;;;;;2.78;0.82;;;;;;;1.32;100.00;99444.41;5054458;28;20179;-76
2023/03/07 06:00:43;;;;;;;1.85;0.73;;;;;;;1.32;100.00;99447.84;5055865;28;20033;-76
2023/03/07 06:03:08;;;;;;;4.00;1.00;;;;;;;1.31;100.00;99450.50;5027839;28;20065;-76
2023/03/07 06:05:34;;;;;;;2.40;0.80;;;;;;;1.29;100.00;99449.69;5058861;28;20058;-76
2023/03/07 06:07:59;;;;;;;4.65;0.93;;;;;;;1.27;100.00;99457.56;5059526;28;20032;-76
2023/03/07 06:10:25;;;;;;;5.72;1.10;;;;;;;1.28;100.00;99451.47;5041967;28;20582;-76
2023/03/07 06:12:52;;;;;;;2.33;0.82;;;;;;;1.29;100.00;99460.97;5057166;28;20659;-76
2023/03/07 06:15:18;;;;;;;2.05;0.73;;;;;;;1.28;100.00;99467.09;5024271;28;20036;-76
2023/03/07 06:17:43;;;;;;;0.73;0.70;;;;;;;1.19;100.00;99463.00;5040499;28;20050;-76
2023/03/07 06:20:10;;;;;;;3.33;0.68;;;;;;;1.08;100.00;99463.31;5028015;28;20406;-76
2023/03/07 06:22:37;;;;;;;3.85;0.60;;;;;;;1.01;100.00;99458.31;5051231;28;20492;-76
2023/03/07 06:25:07;;;;;;;1.52;0.60;;;;;;;0.96;100.00;99462.81;5057154;28;20101;-76
2023/03/07 06:27:33;;;;;;;0.60;0.60;;;;;;;0.91;100.00;99458.56;5036462;28;20566;-76
2023/03/07 06:29:59;;;;;;;1.30;0.80;;;;;;;0.88;100.00;99463.84;5053840;28;20036;-76
2023/03/07 06:32:24;;;;;;;1.80;1.02;;;;;;;0.88;100.00;99461.25;5053933;28;20052;-76
2023/03/07 06:34:50;;;;;;;1.67;0.90;;;;;;;0.89;100.00;99460.38;5012613;28;21281;-76
2023/03/07 06:37:15;;;;;;;1.13;1.00;;;;;;;0.88;100.00;99466.47;5033512;28;20029;-76
2023/03/07 06:39:41;;;;;;;0.70;0.65;;;;;;;0.86;100.00;99464.81;5057982;28;20040;-76
2023/03/07 06:42:07;;;;;;;3.55;0.90;;;;;;;0.83;100.00;99463.16;5036041;28;20086;-76
2023/03/07 06:44:33;;;;;;;1.42;0.80;;;;;;;0.84;100.00;99470.06;5057621;28;20124;-76
2023/03/07 06:46:58;;;;;;;3.97;0.80;;;;;;;0.81;100.00;99460.56;5038103;28;20127;-76
2023/03/07 06:49:24;;;;;;;0.95;0.88;;;;;;;0.82;100.00;99471.88;5052704;28;20035;-76
2023/03/07 06:51:49;;;;;;;1.80;0.80;;;;;;;0.83;100.00;99470.09;5035192;28;20048;-76
2023/03/07 06:54:15;;;;;;;2.40;0.75;;;;;;;0.84;100.00;99470.06;5051370;28;20036;-76
2023/03/07 06:56:40;;;;;;;2.53;0.85;;;;;;;0.86;100.00;99472.63;5043804;28;20390;-76
2023/03/07 06:59:06;;;;;;;4.32;1.00;;;;;;;0.87;100.00;99477.78;5040731;28;20165;-76
2023/03/07 07:01:34;;;;;;;2.15;0.75;;;;;;;0.90;100.00;99482.94;5035504;28;20081;-76
2023/03/07 07:04:00;;;;;;;1.88;1.10;;;;;;;0.96;100.00;99496.69;5050860;28;20858;-76
2023/03/07 07:06:25;;;;;;;3.35;0.80;;;;;;;0.98;100.00;99497.50;5055677;28;20413;-76
2023/03/07 07:08:55;;;;;;;3.17;0.90;;;;;;;0.94;100.00;99497.56;5048716;28;20125;-76
2023/03/07 07:11:22;;;;;;;2.88;0.80;;;;;;;0.91;100.00;99492.44;5034993;28;20451;-76
2023/03/07 07:13:49;;;;;;;1.10;0.70;;;;;;;0.89;100.00;99493.38;5028593;28;20048;-76
2023/03/07 07:16:15;;;;;;;1.70;0.70;;;;;;;0.89;100.00;99491.66;5035219;28;20133;-76
2023/03/07 07:18:41;;;;;;;3.97;0.90;;;;;;;0.89;100.00;99488.16;5032174;28;20072;-76
2023/03/07 07:21:06;;;;;;;4.22;1.15;;;;;;;0.89;100.00;99491.66;5030533;28;20041;-77
2023/03/07 07:23:32;;;;;;;1.42;0.70;;;;;;;0.91;100.00;99496.78;5029687;28;20060;-76
2023/03/07 07:25:58;;;;;;;1.05;0.75;;;;;;;0.92;100.00;99494.16;5029215;28;20044;-76
2023/03/07 07:28:23;;;;;;;1.20;0.75;;;;;;;0.93;100.00;99495.84;5021080;28;20077;-76
2023/03/07 07:30:49;;;;;;;1.65;0.90;;;;;;;0.94;100.00;99494.97;5032869;28;21021;-76
2023/03/07 07:33:15;;;;;;;5.45;0.95;;;;;;;0.97;100.00;99498.41;5031032;28;20494;-76
2023/03/07 07:35:44;;;;;;;0.93;0.73;;;;;;;0.99;100.00;99504.41;5005321;28;20040;-76
2023/03/07 07:38:10;;;;;;;2.53;1.05;;;;;;;1.01;100.00;99502.63;5032952;28;20633;-76
2023/03/07 07:40:36;;;;;;;2.95;0.75;;;;;;;1.03;100.00;99501.69;5014863;28;20407;-77
2023/03/07 07:43:02;;;;;;;3.13;1.10;;;;;;;1.06;100.00;99501.63;5032408;28;20076;-76
2023/03/07 07:45:27;;;;;;;1.55;0.95;;;;;;;1.08;100.00;99499.81;5027325;28;20045;-76
2023/03/07 07:47:53;;;;;;;2.72;1.50;;;;;;;1.12;100.00;99495.38;5032110;28;20064;-76
2023/03/07 07:50:20;;;;;;;4.60;1.35;;;;;;;1.15;100.00;99499.63;5026672;28;20476;-76
2023/03/07 07:52:46;;;;;;;3.33;1.30;;;;;;;1.16;100.00;99497.00;5030931;28;20407;-76
2023/03/07 07:55:14;;;;;;;5.22;1.15;;;;;;;1.18;100.00;99500.41;5032438;28;20119;-75
2023/03/07 07:57:41;;;;;;;3.47;1.63;;;;;;;1.21;100.00;99508.13;5045894;28;20231;-76
2023/03/07 08:00:08;;;;;;;4.50;1.23;;;;;;;1.25;100.00;99508.06;5021487;28;20036;-77
2023/03/07 08:02:36;;;;;;;7.10;1.52;;;;;;;1.27;100.00;99504.50;5029745;28;20040;-76
2023/03/07 08:05:03;;;;;;;3.50;1.30;;;;;;;1.30;100.00;99511.41;5035268;28;20795;-76
2023/03/07 08:07:29;;;;;;;4.38;1.25;;;;;;;1.34;100.00;99510.41;5009091;28;20033;-76
2023/03/07 08:09:54;;;;;;;2.88;1.10;;;;;;;1.38;100.00;99514.63;5029908;28;20064;-76
2023/03/07 08:12:20;;;;;;;2.58;1.00;;;;;;;1.41;100.00;99516.31;5019162;28;20729;-76
2023/03/07 08:14:45;;;;;;;4.13;1.10;;;;;;;1.44;100.00;99511.84;5035260;28;20519;-76
2023/03/07 08:17:11;;;;;;;4.65;1.15;;;;;;;1.48;100.00;99518.66;5055478;28;20048;-76
2023/03/07 08:19:36;;;;;;;1.23;0.85;;;;;;;1.52;100.00;99523.81;5050838;28;20063;-76
2023/03/07 08:22:02;;;;;;;3.92;1.00;;;;;;;1.55;100.00;99518.50;5043835;28;20040;-78
2023/03/07 08:24:27;;;;;;;3.33;1.25;;;;;;;1.58;100.00;99521.88;5006509;28;20386;-76
2023/03/07 08:26:53;;;;;;;2.80;1.00;;;;;;;1.63;100.00;99525.22;5057265;28;20899;-75
2023/03/07 08:29:19;;;;;;;2.50;1.10;;;;;;;1.65;100.00;99525.16;5052477;28;20051;-77
2023/03/07 08:31:45;;;;;;;4.63;1.00;;;;;;;1.68;100.00;99537.28;5012753;28;20411;-76
2023/03/07 08:34:11;;;;;;;1.25;0.85;;;;;;;1.68;100.00;99555.53;5030084;28;20047;-75
2023/03/07 08:36:38;;;;;;;3.35;0.73;;;;;;;1.53;100.00;99549.00;5034590;28;20102;-75
2023/03/07 08:39:04;;;;;;;3.72;1.30;;;;;;;1.40;100.00;99557.16;5050532;28;20032;-75
2023/03/07 08:41:30;;;;;;;1.48;0.73;;;;;;;1.28;100.00;99557.50;5017906;28;20027;-75
2023/03/07 08:43:56;;;;;;;3.40;0.93;;;;;;;1.17;100.00;99556.06;5048869;28;20037;-75
2023/03/07 08:46:22;;;;;;;0.70;0.60;;;;;;;1.03;100.00;99552.97;5030869;28;20035;-75
2023/03/07 08:48:48;;;;;;;2.50;0.73;;;;;;;0.95;100.00;99542.75;5049540;28;20389;-75
2023/03/07 08:51:15;;;;;;;2.75;0.70;;;;;;;0.87;100.00;99535.13;5026126;28;20597;-75
2023/03/07 08:53:42;;;;;;;3.10;1.15;;;;;;;0.83;100.00;99532.63;5032776;28;20067;-76
2023/03/07 08:56:08;;;;;;;5.40;1.08;;;;;;;0.80;100.00;99534.44;5042255;28;20028;-75
2023/03/07 08:58:34;;;;;;;6.13;1.40;;;;;;;0.77;100.00;99531.06;5030272;28;20184;-76
2023/03/07 09:01:00;;;;;;;1.50;0.70;;;;;;;0.82;100.00;99542.22;5048642;28;20168;-75
2023/03/07 09:03:25;;;;;;;0.90;0.70;;;;;;;0.85;100.00;99544.72;5018129;28;20064;-75
2023/03/07 09:05:51;;;;;;;1.40;0.98;;;;;;;0.88;100.00;99554.22;5050249;28;20044;-75
2023/03/07 09:08:17;;;;;;;3.35;0.85;;;;;;;0.92;100.00;99548.88;5051166;28;20036;-75
2023/03/07 09:10:43;;;;;;;3.95;1.00;;;;;;;1.00;100.00;99553.03;5026744;28;20032;-75
2023/03/07 09:13:09;;;;;;;3.47;0.95;;;;;;;1.05;100.00;99556.38;5030590;28;21526;-75
2023/03/07 09:15:38;;;;;;;2.95;1.38;;;;;;;1.10;100.00;99545.84;5018732;28;20292;-75
2023/03/07 09:18:04;;;;;;;2.22;1.02;;;;;;;1.18;100.00;99551.69;5044200;28;20515;-75
2023/03/07 09:20:30;;;;;;;2.03;1.10;;;;;;;1.23;100.00;99562.84;5049799;28;20593;-75
2023/03/07 09:22:55;;;;;;;1.10;0.65;;;;;;;1.27;100.00;99569.72;5045030;28;20035;-75
2023/03/07 09:25:21;;;;;;;3.42;1.10;;;;;;;1.32;100.00;99561.75;5045661;28;20162;-76
2023/03/07 09:27:47;;;;;;;1.63;1.10;;;;;;;1.38;100.00;99565.94;5043035;28;20044;-75
2023/03/07 09:30:13;;;;;;;4.30;0.98;;;;;;;1.40;100.00;99567.59;5027873;28;20657;-75
2023/03/07 09:32:39;;;;;;;4.60;1.13;;;;;;;1.44;100.00;99564.03;5035999;28;20032;-76
2023/03/07 09:35:05;;;;;;;3.28;1.25;;;;;;;1.44;100.00;99569.25;5029172;28;20137;-76
2023/03/07 09:37:31;;;;;;;1.80;1.10;;;;;;;1.44;100.00;99561.41;5051836;28;20399;-76
2023/03/07 09:39:57;;;;;;;5.38;1.05;;;;;;;1.50;100.00;99557.78;5053724;28;20028;-75
2023/03/07 09:42:22;;;;;;;1.05;0.80;;;;;;;1.53;100.00;99560.28;5036840;28;20515;-76
2023/03/07 09:44:56;;;;;;;3.45;1.05;;;;;;;1.62;100.00;99556.56;5044959;28;20077;-75
2023/03/07 09:47:46;;;;;;;4.10;1.10;;;;;;;1.68;100.00;99561.59;5045984;28;20073;-75
2023/03/07 09:50:16;;;;;;;5.53;1.10;;;;;;;1.77;100.00;99560.47;5031311;28;20079;-75
2023/03/07 09:52:42;;;;;;;1.50;0.85;;;;;;;1.83;100.00;99555.06;5026374;28;20368;-75
2023/03/07 09:55:12;;;;;;;3.33;1.13;;;;;;;1.87;100.00;99554.06;5031365;28;20036;-75
2023/03/07 09:57:50;;;;;;;1.20;0.93;;;;;;;1.94;100.00;99554.75;5026169;28;20044;-75
2023/03/07 10:00:36;;;;;;;7.10;1.20;;;;;;;2.01;100.00;99551.06;5030757;28;20043;-75
2023/03/07 10:03:08;;;;;;;2.20;0.80;;;;;;;2.11;100.00;99550.75;5022816;28;20074;-75
2023/03/07 10:05:36;;;;;;;1.02;0.90;;;;;;;2.18;100.00;99554.88;5047718;28;20133;-75
2023/03/07 10:08:04;;;;;;;3.90;0.98;;;;;;;2.24;100.00;99601.69;5046265;28;20044;-75
2023/03/07 10:10:38;;;;;;;3.25;0.93;;;;;;;2.08;100.00;99585.69;5031793;28;20484;-75
2023/03/07 10:13:04;;;;;;;3.28;0.73;;;;;;;1.78;100.00;99574.41;5043899;28;20338;-75
2023/03/07 10:15:45;;;;;;;0.93;0.80;;;;;;;1.61;100.00;99565.28;5042373;28;20543;-75
2023/03/07 10:18:28;;;;;;;0.95;0.73;;;;;;;1.56;100.00;99561.94;5007271;28;20111;-75
2023/03/07 10:21:34;;;;;;;0.70;0.63;;;;;;;1.51;100.00;99554.25;5050329;28;20044;-75
2023/03/07 10:24:21;;;;;;;4.88;0.90;;;;;;;1.47;100.00;99556.09;5040217;28;20052;-76
2023/03/07 10:26:47;;;;;;;0.88;0.60;;;;;;;1.47;100.00;99561.31;5048579;28;20131;-76
2023/03/07 10:29:17;;;;;;;1.35;0.70;;;;;;;1.47;100.00;99556.09;5045963;28;20074;-76
2023/03/07 10:32:05;;;;;;;1.90;0.90;;;;;;;1.51;100.00;99563.84;5039846;28;20083;-76
2023/03/07 10:34:31;;;;;;;1.40;1.00;;;;;;;1.56;100.00;99561.94;5024188;28;20154;-76
2023/03/07 10:37:03;;;;;;;2.08;1.00;;;;;;;1.60;100.00;99567.06;5026766;28;20028;-76
2023/03/07 10:39:51;;;;;;;2.03;0.77;;;;;;;1.66;100.00;99568.63;5044835;28;20385;-76
2023/03/07 10:42:21;;;;;;;2.45;0.90;;;;;;;1.70;100.00;99557.19;5052345;28;20071;-75
2023/03/07 10:44:47;;;;;;;2.15;0.90;;;;;;;1.79;100.00;99558.66;5032322;28;20690;-76
2023/03/07 10:47:21;;;;;;;5.47;1.00;;;;;;;1.87;100.00;99561.06;5046356;28;20051;-76
2023/03/07 10:49:49;;;;;;;4.30;0.85;;;;;;;1.98;100.00;99559.00;5029697;28;20036;-75
2023/03/07 10:52:39;;;;;;;1.88;0.80;;;;;;;2.09;100.00;99550.81;5031292;28;20068;-75
2023/03/07 10:55:35;;;;;;;1.45;1.10;;;;;;;2.21;100.00;99553.94;5048858;28;21691;-76
2023/03/07 10:58:11;;;;;;;5.90;1.10;;;;;;;2.29;100.00;99549.34;5030256;28;20041;-74
2023/03/07 11:00:37;;;;;;;5.20;1.13;;;;;;;2.38;100.00;99546.44;5044275;28;20123;-75
2023/03/07 11:03:02;;;;;;;1.88;0.75;;;;;;;2.46;100.00;99538.34;5020099;28;20085;-75
2023/03/07 11:05:31;;;;;;;2.70;0.70;;;;;;;2.52;100.00;99537.28;5044918;28;20105;-75
2023/03/07 11:07:57;;;;;;;2.22;0.73;;;;;;;2.55;100.00;99542.41;5016890;28;20044;-75
2023/03/07 11:10:39;;;;;;;6.18;1.38;;;;;;;2.58;100.00;99545.75;5020047;28;20255;-75
2023/03/07 11:13:15;;;;;;;3.65;1.10;;;;;;;2.59;100.00;99538.78;5049311;28;20032;-75
2023/03/07 11:15:40;;;;;;;4.10;1.50;;;;;;;2.61;100.00;99546.59;5033469;28;20028;-75
2023/03/07 11:18:28;;;;;;;5.63;1.48;;;;;;;2.63;100.00;99550.84;5033232;28;20047;-75
2023/03/07 11:20:54;;;;;;;3.05;1.20;;;;;;;2.67;100.00;99559.44;5036829;28;20044;-75
2023/03/07 11:23:25;;;;;;;1.55;0.80;;;;;;;2.69;100.00;99555.88;5050045;28;20040;-75
2023/03/07 11:25:54;;;;;;;2.85;0.90;;;;;;;2.73;100.00;99559.25;5049222;28;20032;-75
2023/03/07 11:28:30;;;;;;;4.35;0.88;;;;;;;2.81;100.00;99553.75;5034472;28;20166;-75
2023/03/07 11:31:09;;;;;;;2.58;0.85;;;;;;;2.90;100.00;99556.06;5007432;28;20059;-75
2023/03/07 11:34:00;;;;;;;3.78;0.80;;;;;;;2.97;100.00;99551.47;5018586;28;20142;-75
2023/03/07 11:36:30;;;;;;;1.80;0.90;;;;;;;3.05;100.00;99561.66;5021477;28;20613;-74
2023/03/07 11:39:02;;;;;;;2.55;0.90;;;;;;;3.12;100.00;99558.75;5054640;28;20281;-74